sensor_id;sensor_type;location;lat;lon;timestamp;temperature;humidity
6291;DHT22;3178;48.730;8.990;2022-07-25T00:01:37;20.00;99.90
6291;DHT22;3178;48.730;8.990;2022-07-25T00:04:03;19.90;99.90
6291;DHT22;3178;48.730;8.990;2022-07-25T00:06:29;19.90;99.90
6291;DHT22;3178;48.730;8.990;2022-07-25T00:08:54;19.90;99.90
6291;DHT22;3178;48.730;8.990;2022-07-25T00:11:20;19.90;99.90
6291;DHT22;3178;48.730;8.990;2022-07-25T00:13:45;19.80;99.90
6291;DHT22;3178;48.730;8.990;2022-07-25T00:16:11;19.80;99.90
6291;DHT22;3178;48.730;8.990;2022-07-25T00:18:36;19.60;99.90
6291;DHT22;3178;48.730;8.990;2022-07-25T00:21:02;19.70;99.90
6291;DHT22;3178;48.730;8.990;2022-07-25T00:23:28;19.70;99.90
6291;DHT22;3178;48.730;8.990;2022-07-25T00:25:53;19.60;99.90
6291;DHT22;3178;48.730;8.990;2022-07-25T00:28:19;19.60;99.90
6291;DHT22;3178;48.730;8.990;2022-07-25T00:30:44;19.50;99.90
6291;DHT22;3178;48.730;8.990;2022-07-25T00:33:10;19.60;99.90
6291;DHT22;3178;48.730;8.990;2022-07-25T00:35:36;19.50;99.90
6291;DHT22;3178;48.730;8.990;2022-07-25T00:38:01;19.50;99.90
6291;DHT22;3178;48.730;8.990;2022-07-25T00:40:27;19.60;99.90
6291;DHT22;3178;48.730;8.990;2022-07-25T00:42:52;19.60;99.90
6291;DHT22;3178;48.730;8.990;2022-07-25T00:45:18;19.70;99.90
6291;DHT22;3178;48.730;8.990;2022-07-25T00:47:44;19.50;99.90
6291;DHT22;3178;48.730;8.990;2022-07-25T00:50:09;19.50;99.90
6291;DHT22;3178;48.730;8.990;2022-07-25T00:52:35;19.60;99.90
6291;DHT22;3178;48.730;8.990;2022-07-25T00:55:01;19.60;99.90
6291;DHT22;3178;48.730;8.990;2022-07-25T00:57:26;19.60;99.90
6291;DHT22;3178;48.730;8.990;2022-07-25T00:59:52;19.50;99.90
6291;DHT22;3178;48.730;8.990;2022-07-25T01:02:17;19.50;99.90
6291;DHT22;3178;48.730;8.990;2022-07-25T01:04:43;19.50;99.90
6291;DHT22;3178;48.730;8.990;2022-07-25T01:07:08;19.60;99.90
6291;DHT22;3178;48.730;8.990;2022-07-25T01:09:34;19.50;99.90
6291;DHT22;3178;48.730;8.990;2022-07-25T01:12:00;19.40;99.90
6291;DHT22;3178;48.730;8.990;2022-07-25T01:14:26;19.40;99.90
6291;DHT22;3178;48.730;8.990;2022-07-25T01:16:51;19.50;99.90
6291;DHT22;3178;48.730;8.990;2022-07-25T01:19:17;19.40;99.90
6291;DHT22;3178;48.730;8.990;2022-07-25T01:21:42;19.40;99.90
6291;DHT22;3178;48.730;8.990;2022-07-25T01:24:08;19.40;99.90
6291;DHT22;3178;48.730;8.990;2022-07-25T01:26:34;19.30;99.90
6291;DHT22;3178;48.730;8.990;2022-07-25T01:29:00;19.30;99.90
6291;DHT22;3178;48.730;8.990;2022-07-25T01:31:25;19.20;99.90
6291;DHT22;3178;48.730;8.990;2022-07-25T01:33:51;19.30;99.90
6291;DHT22;3178;48.730;8.990;2022-07-25T01:36:16;19.30;99.90
6291;DHT22;3178;48.730;8.990;2022-07-25T01:38:42;19.20;99.90
6291;DHT22;3178;48.730;8.990;2022-07-25T01:41:07;19.20;99.90
6291;DHT22;3178;48.730;8.990;2022-07-25T01:43:33;19.20;99.90
6291;DHT22;3178;48.730;8.990;2022-07-25T01:45:59;19.10;99.90
6291;DHT22;3178;48.730;8.990;2022-07-25T01:48:24;19.10;99.90
6291;DHT22;3178;48.730;8.990;2022-07-25T01:50:50;19.00;99.90
6291;DHT22;3178;48.730;8.990;2022-07-25T01:53:15;19.00;99.90
6291;DHT22;3178;48.730;8.990;2022-07-25T01:55:43;19.00;99.90
6291;DHT22;3178;48.730;8.990;2022-07-25T01:58:09;19.00;99.90
6291;DHT22;3178;48.730;8.990;2022-07-25T02:00:34;19.00;99.90
6291;DHT22;3178;48.730;8.990;2022-07-25T02:03:00;19.00;99.90
6291;DHT22;3178;48.730;8.990;2022-07-25T02:05:44;19.00;99.90
6291;DHT22;3178;48.730;8.990;2022-07-25T02:08:09;19.20;99.90
6291;DHT22;3178;48.730;8.990;2022-07-25T02:10:35;19.00;99.90
6291;DHT22;3178;48.730;8.990;2022-07-25T02:13:00;19.10;99.90
6291;DHT22;3178;48.730;8.990;2022-07-25T02:15:26;18.90;99.90
6291;DHT22;3178;48.730;8.990;2022-07-25T02:17:52;19.00;99.90
6291;DHT22;3178;48.730;8.990;2022-07-25T02:20:17;18.80;99.90
6291;DHT22;3178;48.730;8.990;2022-07-25T02:22:43;18.80;99.90
6291;DHT22;3178;48.730;8.990;2022-07-25T02:25:08;18.80;99.90
6291;DHT22;3178;48.730;8.990;2022-07-25T02:27:34;18.80;99.90
6291;DHT22;3178;48.730;8.990;2022-07-25T02:30:00;18.90;99.90
6291;DHT22;3178;48.730;8.990;2022-07-25T02:32:25;18.80;99.90
6291;DHT22;3178;48.730;8.990;2022-07-25T02:34:51;18.80;99.90
6291;DHT22;3178;48.730;8.990;2022-07-25T02:37:17;18.70;99.90
6291;DHT22;3178;48.730;8.990;2022-07-25T02:39:42;18.70;99.90
6291;DHT22;3178;48.730;8.990;2022-07-25T02:42:08;18.60;99.90
6291;DHT22;3178;48.730;8.990;2022-07-25T02:44:33;18.50;99.90
6291;DHT22;3178;48.730;8.990;2022-07-25T02:46:59;18.50;99.90
6291;DHT22;3178;48.730;8.990;2022-07-25T02:49:24;18.50;99.90
6291;DHT22;3178;48.730;8.990;2022-07-25T02:51:50;18.50;99.90
6291;DHT22;3178;48.730;8.990;2022-07-25T02:54:15;18.40;99.90
6291;DHT22;3178;48.730;8.990;2022-07-25T02:56:41;18.40;99.90
6291;DHT22;3178;48.730;8.990;2022-07-25T02:59:06;18.40;99.90
6291;DHT22;3178;48.730;8.990;2022-07-25T03:01:32;18.50;99.90
6291;DHT22;3178;48.730;8.990;2022-07-25T03:03:58;18.50;99.90
6291;DHT22;3178;48.730;8.990;2022-07-25T03:06:24;18.40;99.90
6291;DHT22;3178;48.730;8.990;2022-07-25T03:08:49;18.40;99.90
6291;DHT22;3178;48.730;8.990;2022-07-25T03:11:15;18.50;99.90
6291;DHT22;3178;48.730;8.990;2022-07-25T03:13:41;18.50;99.90
6291;DHT22;3178;48.730;8.990;2022-07-25T03:16:07;18.40;99.90
6291;DHT22;3178;48.730;8.990;2022-07-25T03:18:34;18.40;99.90
6291;DHT22;3178;48.730;8.990;2022-07-25T03:20:59;18.50;99.90
6291;DHT22;3178;48.730;8.990;2022-07-25T03:23:25;18.40;99.90
6291;DHT22;3178;48.730;8.990;2022-07-25T03:25:52;18.40;99.90
6291;DHT22;3178;48.730;8.990;2022-07-25T03:28:18;18.40;99.90
6291;DHT22;3178;48.730;8.990;2022-07-25T03:30:44;18.50;99.90
6291;DHT22;3178;48.730;8.990;2022-07-25T03:33:09;18.30;99.90
6291;DHT22;3178;48.730;8.990;2022-07-25T03:35:36;18.30;99.90
6291;DHT22;3178;48.730;8.990;2022-07-25T03:38:02;18.30;99.90
6291;DHT22;3178;48.730;8.990;2022-07-25T03:40:28;18.30;99.90
6291;DHT22;3178;48.730;8.990;2022-07-25T03:42:54;18.30;99.90
6291;DHT22;3178;48.730;8.990;2022-07-25T03:45:19;18.30;99.90
6291;DHT22;3178;48.730;8.990;2022-07-25T03:47:45;18.10;99.90
6291;DHT22;3178;48.730;8.990;2022-07-25T03:50:10;18.10;99.90
6291;DHT22;3178;48.730;8.990;2022-07-25T03:52:36;18.20;99.90
6291;DHT22;3178;48.730;8.990;2022-07-25T03:55:06;18.10;99.90
6291;DHT22;3178;48.730;8.990;2022-07-25T03:57:32;18.10;99.90
6291;DHT22;3178;48.730;8.990;2022-07-25T03:59:58;18.20;99.90
6291;DHT22;3178;48.730;8.990;2022-07-25T04:02:23;18.10;99.90
6291;DHT22;3178;48.730;8.990;2022-07-25T04:04:49;18.20;99.90
6291;DHT22;3178;48.730;8.990;2022-07-25T04:07:16;18.20;99.90
6291;DHT22;3178;48.730;8.990;2022-07-25T04:09:41;18.20;99.90
6291;DHT22;3178;48.730;8.990;2022-07-25T04:12:07;18.20;99.90
6291;DHT22;3178;48.730;8.990;2022-07-25T04:14:33;18.20;99.90
6291;DHT22;3178;48.730;8.990;2022-07-25T04:16:58;18.20;99.90
6291;DHT22;3178;48.730;8.990;2022-07-25T04:19:24;18.20;99.90
6291;DHT22;3178;48.730;8.990;2022-07-25T04:21:49;18.20;99.90
6291;DHT22;3178;48.730;8.990;2022-07-25T04:24:15;18.20;99.90
6291;DHT22;3178;48.730;8.990;2022-07-25T04:26:41;18.30;99.90
6291;DHT22;3178;48.730;8.990;2022-07-25T04:29:06;18.30;99.90
6291;DHT22;3178;48.730;8.990;2022-07-25T04:31:32;18.30;99.90
6291;DHT22;3178;48.730;8.990;2022-07-25T04:33:58;18.30;99.90
6291;DHT22;3178;48.730;8.990;2022-07-25T04:36:23;18.50;99.90
6291;DHT22;3178;48.730;8.990;2022-07-25T04:38:49;18.30;99.90
6291;DHT22;3178;48.730;8.990;2022-07-25T04:41:14;18.40;99.90
6291;DHT22;3178;48.730;8.990;2022-07-25T04:43:40;18.40;99.90
6291;DHT22;3178;48.730;8.990;2022-07-25T04:46:06;18.30;99.90
6291;DHT22;3178;48.730;8.990;2022-07-25T04:48:31;18.30;99.90
6291;DHT22;3178;48.730;8.990;2022-07-25T04:50:57;18.40;99.90
6291;DHT22;3178;48.730;8.990;2022-07-25T04:53:22;18.50;99.90
6291;DHT22;3178;48.730;8.990;2022-07-25T04:55:48;18.60;99.90
6291;DHT22;3178;48.730;8.990;2022-07-25T04:58:14;18.50;99.90
6291;DHT22;3178;48.730;8.990;2022-07-25T05:00:40;18.50;99.90
6291;DHT22;3178;48.730;8.990;2022-07-25T05:03:05;18.70;99.90
6291;DHT22;3178;48.730;8.990;2022-07-25T05:05:31;18.70;99.90
6291;DHT22;3178;48.730;8.990;2022-07-25T05:07:58;18.70;99.90
6291;DHT22;3178;48.730;8.990;2022-07-25T05:10:28;18.70;99.90
6291;DHT22;3178;48.730;8.990;2022-07-25T05:12:54;18.90;99.90
6291;DHT22;3178;48.730;8.990;2022-07-25T05:15:20;18.90;99.90
6291;DHT22;3178;48.730;8.990;2022-07-25T05:17:45;18.90;99.90
6291;DHT22;3178;48.730;8.990;2022-07-25T05:20:12;18.90;99.90
6291;DHT22;3178;48.730;8.990;2022-07-25T05:22:37;19.20;99.90
6291;DHT22;3178;48.730;8.990;2022-07-25T05:25:06;19.20;99.90
6291;DHT22;3178;48.730;8.990;2022-07-25T05:27:31;19.40;99.90
6291;DHT22;3178;48.730;8.990;2022-07-25T05:29:57;19.40;99.90
6291;DHT22;3178;48.730;8.990;2022-07-25T05:32:23;19.60;99.90
6291;DHT22;3178;48.730;8.990;2022-07-25T05:34:48;19.90;99.90
6291;DHT22;3178;48.730;8.990;2022-07-25T05:37:14;20.00;99.90
6291;DHT22;3178;48.730;8.990;2022-07-25T05:39:39;20.20;99.90
6291;DHT22;3178;48.730;8.990;2022-07-25T05:42:08;20.30;99.90
6291;DHT22;3178;48.730;8.990;2022-07-25T05:44:33;20.50;99.90
6291;DHT22;3178;48.730;8.990;2022-07-25T05:46:59;20.80;99.90
6291;DHT22;3178;48.730;8.990;2022-07-25T05:49:25;20.90;99.90
6291;DHT22;3178;48.730;8.990;2022-07-25T05:51:51;21.10;99.90
6291;DHT22;3178;48.730;8.990;2022-07-25T05:54:16;21.20;99.90
6291;DHT22;3178;48.730;8.990;2022-07-25T05:56:42;21.30;99.90
6291;DHT22;3178;48.730;8.990;2022-07-25T05:59:07;21.50;99.90
6291;DHT22;3178;48.730;8.990;2022-07-25T06:01:33;21.60;99.90
6291;DHT22;3178;48.730;8.990;2022-07-25T06:03:59;21.80;99.90
6291;DHT22;3178;48.730;8.990;2022-07-25T06:06:24;21.80;99.90
6291;DHT22;3178;48.730;8.990;2022-07-25T06:08:50;22.00;99.90
6291;DHT22;3178;48.730;8.990;2022-07-25T06:11:15;22.20;99.90
6291;DHT22;3178;48.730;8.990;2022-07-25T06:13:41;22.30;99.90
6291;DHT22;3178;48.730;8.990;2022-07-25T06:16:07;22.50;99.90
6291;DHT22;3178;48.730;8.990;2022-07-25T06:18:33;22.70;99.90
6291;DHT22;3178;48.730;8.990;2022-07-25T06:20:59;22.80;99.90
6291;DHT22;3178;48.730;8.990;2022-07-25T06:23:24;23.00;99.90
6291;DHT22;3178;48.730;8.990;2022-07-25T06:25:50;23.10;99.90
6291;DHT22;3178;48.730;8.990;2022-07-25T06:28:16;23.30;99.90
6291;DHT22;3178;48.730;8.990;2022-07-25T06:30:42;23.50;99.90
6291;DHT22;3178;48.730;8.990;2022-07-25T06:33:08;23.60;99.90
6291;DHT22;3178;48.730;8.990;2022-07-25T06:35:34;23.70;99.90
6291;DHT22;3178;48.730;8.990;2022-07-25T06:38:00;23.80;99.90
6291;DHT22;3178;48.730;8.990;2022-07-25T06:40:26;23.90;99.90
6291;DHT22;3178;48.730;8.990;2022-07-25T06:42:51;24.00;99.90
6291;DHT22;3178;48.730;8.990;2022-07-25T06:45:17;24.20;99.90
6291;DHT22;3178;48.730;8.990;2022-07-25T06:47:43;24.40;99.90
6291;DHT22;3178;48.730;8.990;2022-07-25T06:50:12;24.50;99.90
6291;DHT22;3178;48.730;8.990;2022-07-25T06:52:38;24.60;99.90
6291;DHT22;3178;48.730;8.990;2022-07-25T06:55:05;24.70;99.90
6291;DHT22;3178;48.730;8.990;2022-07-25T06:57:31;24.90;99.90
6291;DHT22;3178;48.730;8.990;2022-07-25T06:59:56;25.00;99.90
6291;DHT22;3178;48.730;8.990;2022-07-25T07:02:22;25.10;99.90
6291;DHT22;3178;48.730;8.990;2022-07-25T07:04:48;25.20;99.90
6291;DHT22;3178;48.730;8.990;2022-07-25T07:07:14;25.30;99.90
6291;DHT22;3178;48.730;8.990;2022-07-25T07:09:40;25.50;99.90
6291;DHT22;3178;48.730;8.990;2022-07-25T07:12:06;25.60;99.90
6291;DHT22;3178;48.730;8.990;2022-07-25T07:14:32;25.70;99.90
6291;DHT22;3178;48.730;8.990;2022-07-25T07:16:58;25.80;99.90
6291;DHT22;3178;48.730;8.990;2022-07-25T07:19:23;26.00;99.90
6291;DHT22;3178;48.730;8.990;2022-07-25T07:21:49;26.20;99.90
6291;DHT22;3178;48.730;8.990;2022-07-25T07:24:16;26.40;99.90
6291;DHT22;3178;48.730;8.990;2022-07-25T07:26:41;26.60;99.90
6291;DHT22;3178;48.730;8.990;2022-07-25T07:29:07;26.70;99.90
6291;DHT22;3178;48.730;8.990;2022-07-25T07:31:32;26.80;99.90
6291;DHT22;3178;48.730;8.990;2022-07-25T07:33:58;26.90;99.90
6291;DHT22;3178;48.730;8.990;2022-07-25T07:36:24;27.00;99.90
6291;DHT22;3178;48.730;8.990;2022-07-25T07:38:49;27.20;99.90
6291;DHT22;3178;48.730;8.990;2022-07-25T07:41:16;27.30;99.90
6291;DHT22;3178;48.730;8.990;2022-07-25T07:43:42;27.40;99.90
6291;DHT22;3178;48.730;8.990;2022-07-25T07:46:07;27.50;99.90
6291;DHT22;3178;48.730;8.990;2022-07-25T07:48:33;27.60;99.90
6291;DHT22;3178;48.730;8.990;2022-07-25T07:51:00;27.70;99.90
6291;DHT22;3178;48.730;8.990;2022-07-25T07:53:26;27.80;99.90
6291;DHT22;3178;48.730;8.990;2022-07-25T07:56:11;28.00;99.90
6291;DHT22;3178;48.730;8.990;2022-07-25T07:58:37;28.20;99.90
6291;DHT22;3178;48.730;8.990;2022-07-25T08:01:03;28.30;99.90
6291;DHT22;3178;48.730;8.990;2022-07-25T08:03:28;28.40;99.90
6291;DHT22;3178;48.730;8.990;2022-07-25T08:05:54;28.50;99.90
6291;DHT22;3178;48.730;8.990;2022-07-25T08:08:20;28.80;99.90
6291;DHT22;3178;48.730;8.990;2022-07-25T08:10:47;28.90;99.90
6291;DHT22;3178;48.730;8.990;2022-07-25T08:15:42;29.10;99.90
6291;DHT22;3178;48.730;8.990;2022-07-25T08:18:08;29.30;99.90
6291;DHT22;3178;48.730;8.990;2022-07-25T08:20:34;29.40;99.90
6291;DHT22;3178;48.730;8.990;2022-07-25T08:23:00;29.70;99.90
6291;DHT22;3178;48.730;8.990;2022-07-25T08:25:26;30.00;99.90
6291;DHT22;3178;48.730;8.990;2022-07-25T08:27:52;30.10;99.90
6291;DHT22;3178;48.730;8.990;2022-07-25T08:30:18;30.30;99.90
6291;DHT22;3178;48.730;8.990;2022-07-25T08:32:50;30.60;99.90
6291;DHT22;3178;48.730;8.990;2022-07-25T08:35:18;30.70;99.40
6291;DHT22;3178;48.730;8.990;2022-07-25T08:37:44;30.90;99.90
6291;DHT22;3178;48.730;8.990;2022-07-25T08:40:12;31.20;99.30
6291;DHT22;3178;48.730;8.990;2022-07-25T08:42:38;31.20;98.40
6291;DHT22;3178;48.730;8.990;2022-07-25T08:45:06;31.30;99.00
6291;DHT22;3178;48.730;8.990;2022-07-25T08:47:32;31.50;96.80
6291;DHT22;3178;48.730;8.990;2022-07-25T08:49:58;31.50;97.30
6291;DHT22;3178;48.730;8.990;2022-07-25T08:52:26;31.60;96.30
6291;DHT22;3178;48.730;8.990;2022-07-25T08:54:52;31.70;96.40
6291;DHT22;3178;48.730;8.990;2022-07-25T08:57:18;31.90;96.10
6291;DHT22;3178;48.730;8.990;2022-07-25T08:59:43;32.00;94.50
6291;DHT22;3178;48.730;8.990;2022-07-25T09:02:15;32.00;95.60
6291;DHT22;3178;48.730;8.990;2022-07-25T09:04:41;32.10;95.00
6291;DHT22;3178;48.730;8.990;2022-07-25T09:07:08;32.30;96.50
6291;DHT22;3178;48.730;8.990;2022-07-25T09:09:35;32.60;97.90
6291;DHT22;3178;48.730;8.990;2022-07-25T09:12:01;32.80;93.90
6291;DHT22;3178;48.730;8.990;2022-07-25T09:14:27;32.90;94.00
6291;DHT22;3178;48.730;8.990;2022-07-25T09:16:55;33.10;92.80
6291;DHT22;3178;48.730;8.990;2022-07-25T09:19:23;33.30;92.60
6291;DHT22;3178;48.730;8.990;2022-07-25T09:24:23;33.60;91.20
6291;DHT22;3178;48.730;8.990;2022-07-25T09:26:54;33.70;92.30
6291;DHT22;3178;48.730;8.990;2022-07-25T09:29:22;33.90;93.50
6291;DHT22;3178;48.730;8.990;2022-07-25T09:31:48;34.10;91.50
6291;DHT22;3178;48.730;8.990;2022-07-25T09:34:35;34.10;89.10
6291;DHT22;3178;48.730;8.990;2022-07-25T09:37:03;34.30;91.20
6291;DHT22;3178;48.730;8.990;2022-07-25T09:41:59;34.60;86.10
6291;DHT22;3178;48.730;8.990;2022-07-25T09:44:24;34.70;82.40
6291;DHT22;3178;48.730;8.990;2022-07-25T09:46:57;34.70;85.90
6291;DHT22;3178;48.730;8.990;2022-07-25T09:49:39;34.80;82.70
6291;DHT22;3178;48.730;8.990;2022-07-25T09:52:05;34.90;79.80
6291;DHT22;3178;48.730;8.990;2022-07-25T09:54:31;35.00;77.40
6291;DHT22;3178;48.730;8.990;2022-07-25T09:56:57;35.20;76.60
6291;DHT22;3178;48.730;8.990;2022-07-25T09:59:23;35.20;70.40
6291;DHT22;3178;48.730;8.990;2022-07-25T10:07:08;35.50;69.60
6291;DHT22;3178;48.730;8.990;2022-07-25T10:09:45;35.50;63.90
6291;DHT22;3178;48.730;8.990;2022-07-25T10:12:13;35.40;68.40
6291;DHT22;3178;48.730;8.990;2022-07-25T10:14:39;35.40;65.10
6291;DHT22;3178;48.730;8.990;2022-07-25T10:17:06;35.60;62.40
6291;DHT22;3178;48.730;8.990;2022-07-25T10:19:44;35.70;63.10
6291;DHT22;3178;48.730;8.990;2022-07-25T10:22:10;35.80;62.60
6291;DHT22;3178;48.730;8.990;2022-07-25T10:24:37;35.90;63.10
6291;DHT22;3178;48.730;8.990;2022-07-25T10:27:16;36.00;61.80
6291;DHT22;3178;48.730;8.990;2022-07-25T10:29:51;36.00;61.30
6291;DHT22;3178;48.730;8.990;2022-07-25T10:32:17;36.00;61.10
6291;DHT22;3178;48.730;8.990;2022-07-25T10:34:51;36.10;61.20
6291;DHT22;3178;48.730;8.990;2022-07-25T10:37:18;36.10;57.10
6291;DHT22;3178;48.730;8.990;2022-07-25T10:39:50;36.10;63.50
6291;DHT22;3178;48.730;8.990;2022-07-25T10:42:17;36.20;63.70
6291;DHT22;3178;48.730;8.990;2022-07-25T10:44:47;36.30;59.60
6291;DHT22;3178;48.730;8.990;2022-07-25T10:47:15;36.30;57.70
6291;DHT22;3178;48.730;8.990;2022-07-25T10:49:42;36.20;58.00
6291;DHT22;3178;48.730;8.990;2022-07-25T10:52:15;36.20;56.10
6291;DHT22;3178;48.730;8.990;2022-07-25T10:54:53;36.00;56.90
6291;DHT22;3178;48.730;8.990;2022-07-25T10:57:19;36.10;58.40
6291;DHT22;3178;48.730;8.990;2022-07-25T10:59:44;36.10;58.10
6291;DHT22;3178;48.730;8.990;2022-07-25T11:02:11;36.20;58.20
6291;DHT22;3178;48.730;8.990;2022-07-25T11:04:45;36.30;56.60
6291;DHT22;3178;48.730;8.990;2022-07-25T11:07:15;36.30;56.30
6291;DHT22;3178;48.730;8.990;2022-07-25T11:09:43;36.30;54.40
6291;DHT22;3178;48.730;8.990;2022-07-25T11:12:13;36.30;56.40
6291;DHT22;3178;48.730;8.990;2022-07-25T11:14:40;36.30;57.40
6291;DHT22;3178;48.730;8.990;2022-07-25T11:17:18;36.20;55.50
6291;DHT22;3178;48.730;8.990;2022-07-25T11:19:55;36.10;54.80
6291;DHT22;3178;48.730;8.990;2022-07-25T11:22:21;36.00;55.30
6291;DHT22;3178;48.730;8.990;2022-07-25T11:24:46;35.90;54.80
6291;DHT22;3178;48.730;8.990;2022-07-25T11:27:20;35.90;54.00
6291;DHT22;3178;48.730;8.990;2022-07-25T11:29:46;35.90;53.80
6291;DHT22;3178;48.730;8.990;2022-07-25T11:32:12;36.00;53.00
6291;DHT22;3178;48.730;8.990;2022-07-25T11:34:47;36.10;53.20
6291;DHT22;3178;48.730;8.990;2022-07-25T11:37:14;36.10;53.40
6291;DHT22;3178;48.730;8.990;2022-07-25T11:39:42;36.20;52.90
6291;DHT22;3178;48.730;8.990;2022-07-25T11:42:11;36.40;52.30
6291;DHT22;3178;48.730;8.990;2022-07-25T11:44:38;36.50;54.00
6291;DHT22;3178;48.730;8.990;2022-07-25T11:47:06;36.80;54.50
6291;DHT22;3178;48.730;8.990;2022-07-25T11:49:46;37.00;52.40
6291;DHT22;3178;48.730;8.990;2022-07-25T11:52:23;36.90;51.40
6291;DHT22;3178;48.730;8.990;2022-07-25T11:54:54;36.60;50.90
6291;DHT22;3178;48.730;8.990;2022-07-25T11:57:24;36.30;51.90
6291;DHT22;3178;48.730;8.990;2022-07-25T11:59:51;36.10;52.60
6291;DHT22;3178;48.730;8.990;2022-07-25T12:02:24;35.80;52.20
6291;DHT22;3178;48.730;8.990;2022-07-25T12:04:59;35.70;52.70
6291;DHT22;3178;48.730;8.990;2022-07-25T12:07:48;35.60;52.70
6291;DHT22;3178;48.730;8.990;2022-07-25T12:10:39;35.50;53.00
6291;DHT22;3178;48.730;8.990;2022-07-25T12:13:06;35.70;53.30
6291;DHT22;3178;48.730;8.990;2022-07-25T12:15:39;35.80;53.60
6291;DHT22;3178;48.730;8.990;2022-07-25T12:18:06;36.00;53.80
6291;DHT22;3178;48.730;8.990;2022-07-25T12:20:38;36.20;55.00
6291;DHT22;3178;48.730;8.990;2022-07-25T12:23:06;36.50;53.70
6291;DHT22;3178;48.730;8.990;2022-07-25T12:25:39;36.60;52.90
6291;DHT22;3178;48.730;8.990;2022-07-25T12:28:05;36.60;55.50
6291;DHT22;3178;48.730;8.990;2022-07-25T12:30:31;36.70;53.80
6291;DHT22;3178;48.730;8.990;2022-07-25T12:32:57;36.80;52.60
6291;DHT22;3178;48.730;8.990;2022-07-25T12:35:23;36.90;54.20
6291;DHT22;3178;48.730;8.990;2022-07-25T12:37:50;36.70;54.40
6291;DHT22;3178;48.730;8.990;2022-07-25T12:40:16;36.40;53.30
6291;DHT22;3178;48.730;8.990;2022-07-25T12:42:42;36.10;54.30
6291;DHT22;3178;48.730;8.990;2022-07-25T12:45:09;35.90;55.10
6291;DHT22;3178;48.730;8.990;2022-07-25T12:47:35;35.60;54.90
6291;DHT22;3178;48.730;8.990;2022-07-25T12:50:01;35.40;56.10
6291;DHT22;3178;48.730;8.990;2022-07-25T12:52:26;35.40;57.20
6291;DHT22;3178;48.730;8.990;2022-07-25T12:54:52;35.60;56.90
6291;DHT22;3178;48.730;8.990;2022-07-25T12:57:18;35.90;56.20
6291;DHT22;3178;48.730;8.990;2022-07-25T12:59:45;36.20;56.10
6291;DHT22;3178;48.730;8.990;2022-07-25T13:02:11;36.30;58.00
6291;DHT22;3178;48.730;8.990;2022-07-25T13:04:37;36.50;55.30
6291;DHT22;3178;48.730;8.990;2022-07-25T13:07:02;36.60;54.30
6291;DHT22;3178;48.730;8.990;2022-07-25T13:09:28;36.80;56.00
6291;DHT22;3178;48.730;8.990;2022-07-25T13:11:55;37.00;55.00
6291;DHT22;3178;48.730;8.990;2022-07-25T13:14:21;37.00;54.60
6291;DHT22;3178;48.730;8.990;2022-07-25T13:16:47;36.90;53.50
6291;DHT22;3178;48.730;8.990;2022-07-25T13:19:13;36.50;54.60
6291;DHT22;3178;48.730;8.990;2022-07-25T13:21:39;36.20;54.50
6291;DHT22;3178;48.730;8.990;2022-07-25T13:24:05;36.10;54.90
6291;DHT22;3178;48.730;8.990;2022-07-25T13:26:34;36.30;54.00
6291;DHT22;3178;48.730;8.990;2022-07-25T13:29:01;36.30;56.00
6291;DHT22;3178;48.730;8.990;2022-07-25T13:31:27;36.30;54.00
6291;DHT22;3178;48.730;8.990;2022-07-25T13:33:53;36.40;55.10
6291;DHT22;3178;48.730;8.990;2022-07-25T13:36:19;36.60;54.00
6291;DHT22;3178;48.730;8.990;2022-07-25T13:38:45;36.60;54.00
6291;DHT22;3178;48.730;8.990;2022-07-25T13:41:12;36.40;55.40
6291;DHT22;3178;48.730;8.990;2022-07-25T13:43:38;36.30;52.80
6291;DHT22;3178;48.730;8.990;2022-07-25T13:46:04;36.00;53.70
6291;DHT22;3178;48.730;8.990;2022-07-25T13:48:30;35.80;53.60
6291;DHT22;3178;48.730;8.990;2022-07-25T13:50:56;35.40;53.90
6291;DHT22;3178;48.730;8.990;2022-07-25T13:53:22;35.20;54.30
6291;DHT22;3178;48.730;8.990;2022-07-25T13:55:48;34.90;54.40
6291;DHT22;3178;48.730;8.990;2022-07-25T13:58:13;34.60;56.60
6291;DHT22;3178;48.730;8.990;2022-07-25T14:00:39;34.40;55.70
6291;DHT22;3178;48.730;8.990;2022-07-25T14:03:05;34.40;56.80
6291;DHT22;3178;48.730;8.990;2022-07-25T14:05:31;34.30;57.30
6291;DHT22;3178;48.730;8.990;2022-07-25T14:07:58;34.10;57.90
6291;DHT22;3178;48.730;8.990;2022-07-25T14:10:23;34.00;58.80
6291;DHT22;3178;48.730;8.990;2022-07-25T14:12:49;33.80;59.30
6291;DHT22;3178;48.730;8.990;2022-07-25T14:15:14;33.70;59.80
6291;DHT22;3178;48.730;8.990;2022-07-25T14:17:40;33.60;60.20
6291;DHT22;3178;48.730;8.990;2022-07-25T14:20:06;33.60;61.30
6291;DHT22;3178;48.730;8.990;2022-07-25T14:22:32;33.70;60.60
6291;DHT22;3178;48.730;8.990;2022-07-25T14:24:57;33.70;61.50
6291;DHT22;3178;48.730;8.990;2022-07-25T14:27:23;33.70;61.10
6291;DHT22;3178;48.730;8.990;2022-07-25T14:29:49;33.70;60.60
6291;DHT22;3178;48.730;8.990;2022-07-25T14:32:14;33.60;61.00
6291;DHT22;3178;48.730;8.990;2022-07-25T14:34:40;33.60;61.70
6291;DHT22;3178;48.730;8.990;2022-07-25T14:37:06;33.70;61.10
6291;DHT22;3178;48.730;8.990;2022-07-25T14:39:32;33.50;60.00
6291;DHT22;3178;48.730;8.990;2022-07-25T14:41:58;33.40;60.70
6291;DHT22;3178;48.730;8.990;2022-07-25T14:44:27;33.40;61.10
6291;DHT22;3178;48.730;8.990;2022-07-25T14:46:53;33.40;60.60
6291;DHT22;3178;48.730;8.990;2022-07-25T14:49:21;33.40;61.70
6291;DHT22;3178;48.730;8.990;2022-07-25T14:51:47;33.50;63.50
6291;DHT22;3178;48.730;8.990;2022-07-25T14:54:12;33.50;61.00
6291;DHT22;3178;48.730;8.990;2022-07-25T14:56:38;33.60;62.80
6291;DHT22;3178;48.730;8.990;2022-07-25T14:59:05;33.70;62.00
6291;DHT22;3178;48.730;8.990;2022-07-25T15:01:30;33.90;62.30
6291;DHT22;3178;48.730;8.990;2022-07-25T15:03:56;33.90;61.80
6291;DHT22;3178;48.730;8.990;2022-07-25T15:06:22;34.10;61.30
6291;DHT22;3178;48.730;8.990;2022-07-25T15:08:48;34.20;61.80
6291;DHT22;3178;48.730;8.990;2022-07-25T15:11:17;34.20;61.50
6291;DHT22;3178;48.730;8.990;2022-07-25T15:13:43;33.90;62.10
6291;DHT22;3178;48.730;8.990;2022-07-25T15:16:09;33.90;62.40
6291;DHT22;3178;48.730;8.990;2022-07-25T15:18:36;33.80;62.30
6291;DHT22;3178;48.730;8.990;2022-07-25T15:21:02;33.70;62.30
6291;DHT22;3178;48.730;8.990;2022-07-25T15:23:31;33.70;61.80
6291;DHT22;3178;48.730;8.990;2022-07-25T15:25:57;33.40;62.30
6291;DHT22;3178;48.730;8.990;2022-07-25T15:28:23;33.20;62.50
6291;DHT22;3178;48.730;8.990;2022-07-25T15:30:49;33.20;63.60
6291;DHT22;3178;48.730;8.990;2022-07-25T15:33:16;33.10;65.10
6291;DHT22;3178;48.730;8.990;2022-07-25T15:35:46;33.10;64.90
6291;DHT22;3178;48.730;8.990;2022-07-25T15:38:15;32.90;67.70
6291;DHT22;3178;48.730;8.990;2022-07-25T15:40:42;32.50;68.50
6291;DHT22;3178;48.730;8.990;2022-07-25T15:43:08;32.20;69.40
6291;DHT22;3178;48.730;8.990;2022-07-25T15:45:42;31.80;69.00
6291;DHT22;3178;48.730;8.990;2022-07-25T15:48:09;31.50;70.10
6291;DHT22;3178;48.730;8.990;2022-07-25T15:50:37;31.20;70.90
6291;DHT22;3178;48.730;8.990;2022-07-25T15:53:03;31.10;71.80
6291;DHT22;3178;48.730;8.990;2022-07-25T15:55:30;31.00;72.30
6291;DHT22;3178;48.730;8.990;2022-07-25T15:57:56;30.90;73.30
6291;DHT22;3178;48.730;8.990;2022-07-25T16:00:22;31.00;72.10
6291;DHT22;3178;48.730;8.990;2022-07-25T16:02:48;31.00;71.10
6291;DHT22;3178;48.730;8.990;2022-07-25T16:05:13;31.00;71.40
6291;DHT22;3178;48.730;8.990;2022-07-25T16:07:40;30.90;71.10
6291;DHT22;3178;48.730;8.990;2022-07-25T16:10:08;30.90;70.30
6291;DHT22;3178;48.730;8.990;2022-07-25T16:12:34;30.70;68.90